Guion, Arkansas
Current Conditions -  °F | °C
As of 3:15 AM on Friday 19 Dec 2014 (Local Time) from KBVX Reporting Station
Overcast Overcast  
Wind Chill: 34°   Ceiling: 4400
Heat Index: 37°   Visibility: 5mi
Dew Point: 36°   Wind: 5mph
Humidity: 93%   Direction: 50°NE
Pressure: 30.21"   Gusts: NA
Location:  35.93°N, 91.94°W
Report Text: KBVX 190915Z AUTO 05004KT 5SM FEW007 SCT017 OVC044 03/02 A3021 RMK AO1
Loading
Personal Weather Stations






























Interactive Weather Map New forecast layout! Learn more

10-Day Weather Forecast

Advertisements
Track Severe Weather on mobile